createdAt,value
2022-08-12T00:01:06.118Z,16.10
2022-08-12T00:03:52.463Z,16.10
2022-08-12T00:06:40.024Z,16.10
2022-08-12T00:09:26.789Z,16.00
2022-08-12T00:12:13.413Z,16.00
2022-08-12T00:15:01.371Z,16.00
2022-08-12T00:17:47.611Z,16.00
2022-08-12T00:20:33.626Z,16.00
2022-08-12T00:23:19.981Z,16.00
2022-08-12T00:26:23.448Z,16.00
2022-08-12T00:29:11.485Z,15.90
2022-08-12T00:31:57.961Z,15.90
2022-08-12T00:34:45.783Z,15.80
2022-08-12T00:37:33.610Z,15.80
2022-08-12T00:40:19.784Z,15.80
2022-08-12T00:42:49.423Z,15.70
2022-08-12T00:45:16.508Z,15.60
2022-08-12T00:47:44.556Z,15.60
2022-08-12T00:50:18.979Z,15.60
2022-08-12T00:52:47.917Z,15.60
2022-08-12T00:55:16.807Z,15.60
2022-08-12T00:57:50.745Z,15.50
2022-08-12T01:00:24.934Z,15.50
2022-08-12T01:02:58.297Z,15.50
2022-08-12T01:05:45.188Z,15.50
2022-08-12T01:08:30.942Z,15.50
2022-08-12T01:11:16.941Z,15.60
2022-08-12T01:13:49.586Z,15.70
2022-08-12T01:16:24.275Z,15.80
2022-08-12T01:18:53.974Z,16.00
2022-08-12T01:21:45.249Z,16.10
2022-08-12T01:24:44.108Z,16.20
2022-08-12T01:27:13.475Z,16.30
2022-08-12T01:29:45.271Z,16.40
2022-08-12T01:32:17.137Z,16.40
2022-08-12T01:35:07.915Z,16.50
2022-08-12T01:37:41.875Z,16.60
2022-08-12T01:40:35.602Z,16.60
2022-08-12T01:43:05.935Z,16.70
2022-08-12T01:45:40.577Z,16.80
2022-08-12T01:48:34.999Z,16.80
2022-08-12T01:52:15.928Z,16.90
2022-08-12T01:54:17.545Z,16.90
2022-08-12T01:56:53.113Z,17.00
2022-08-12T02:00:00.666Z,17.00
2022-08-12T02:02:30.934Z,17.10
2022-08-12T02:05:30.100Z,17.10
2022-08-12T02:08:40.808Z,17.20
2022-08-12T02:11:20.137Z,17.30
2022-08-12T02:13:50.744Z,17.40
2022-08-12T02:16:46.107Z,17.40
2022-08-12T02:19:51.318Z,17.40
2022-08-12T02:22:18.371Z,17.40
2022-08-12T02:24:46.900Z,17.40
2022-08-12T02:27:15.530Z,17.40
2022-08-12T02:29:42.739Z,17.40
2022-08-12T02:32:10.117Z,17.30
2022-08-12T02:34:38.031Z,17.30
2022-08-12T02:37:06.402Z,17.30
2022-08-12T02:39:36.397Z,17.20
2022-08-12T02:42:07.217Z,17.20
2022-08-12T02:44:40.471Z,17.10
2022-08-12T02:47:59.130Z,17.10
2022-08-12T02:49:58.563Z,17.10
2022-08-12T02:52:27.635Z,17.10
2022-08-12T02:55:01.794Z,17.00
2022-08-12T02:57:31.666Z,17.00
2022-08-12T03:00:04.268Z,17.00
2022-08-12T03:02:33.748Z,17.00
2022-08-12T03:05:03.518Z,17.00
2022-08-12T03:07:59.757Z,17.00
2022-08-12T03:10:36.727Z,17.00
2022-08-12T03:13:07.513Z,17.00
2022-08-12T03:15:36.015Z,17.10
2022-08-12T03:18:24.684Z,17.10
2022-08-12T03:21:00.348Z,17.20
2022-08-12T03:23:30.819Z,17.20
2022-08-12T03:26:03.218Z,17.30
2022-08-12T03:28:52.020Z,17.30
2022-08-12T03:31:22.166Z,17.30
2022-08-12T03:34:01.428Z,17.40
2022-08-12T03:36:36.653Z,17.40
2022-08-12T03:39:18.862Z,17.40
2022-08-12T03:42:10.711Z,17.40
2022-08-12T03:45:04.435Z,17.40
2022-08-12T03:48:02.164Z,17.30
2022-08-12T03:50:48.916Z,17.30
2022-08-12T03:53:46.703Z,17.20
2022-08-12T03:56:33.431Z,17.10
2022-08-12T03:59:21.465Z,17.10
2022-08-12T04:01:57.970Z,17.10
2022-08-12T04:04:34.949Z,17.00
2022-08-12T04:07:10.757Z,17.00
2022-08-12T04:09:43.690Z,16.90
2022-08-12T04:12:40.123Z,16.90
2022-08-12T04:15:09.195Z,16.90
2022-08-12T04:17:37.708Z,16.80
2022-08-12T04:20:25.151Z,16.80
2022-08-12T04:22:54.545Z,16.80
2022-08-12T04:25:27.046Z,16.80
2022-08-12T04:27:55.183Z,16.80
2022-08-12T04:30:32.201Z,16.90
2022-08-12T04:33:01.044Z,16.90
2022-08-12T04:35:28.666Z,16.80
2022-08-12T04:37:58.402Z,16.80
2022-08-12T04:40:31.740Z,16.80
2022-08-12T04:43:01.543Z,16.80
2022-08-12T04:45:29.469Z,16.80
2022-08-12T04:47:56.993Z,16.90
2022-08-12T04:50:34.501Z,16.90
2022-08-12T04:53:05.678Z,16.90
2022-08-12T04:55:34.925Z,16.90
2022-08-12T04:58:02.164Z,16.90
2022-08-12T05:00:29.430Z,16.90
2022-08-12T05:02:56.579Z,17.00
2022-08-12T05:05:24.862Z,17.00
2022-08-12T05:07:54.271Z,17.00
2022-08-12T05:10:34.051Z,17.00
2022-08-12T05:13:08.005Z,17.00
2022-08-12T05:16:03.924Z,17.00
2022-08-12T05:18:29.441Z,17.00
2022-08-12T05:20:58.901Z,17.10
2022-08-12T05:23:26.189Z,17.10
2022-08-12T05:25:57.420Z,17.20
2022-08-12T05:28:27.565Z,17.20
2022-08-12T05:30:55.791Z,17.30
2022-08-12T05:33:26.880Z,17.40
2022-08-12T05:35:54.113Z,17.40
2022-08-12T05:38:39.649Z,17.50
2022-08-12T05:41:19.288Z,17.60
2022-08-12T05:43:58.966Z,17.60
2022-08-12T05:46:27.362Z,17.70
2022-08-12T05:48:55.301Z,17.80
2022-08-12T05:51:32.312Z,17.90
2022-08-12T05:54:07.187Z,17.90
2022-08-12T05:56:36.324Z,18.10
2022-08-12T05:59:09.693Z,18.20
2022-08-12T06:02:12.713Z,18.20
2022-08-12T06:04:24.676Z,18.30
2022-08-12T06:06:53.733Z,18.50
2022-08-12T06:09:22.882Z,18.60
2022-08-12T06:12:04.185Z,18.70
2022-08-12T06:14:36.963Z,18.80
2022-08-12T06:17:06.159Z,19.00
2022-08-12T06:20:26.069Z,19.10
2022-08-12T06:22:20.433Z,19.20
2022-08-12T06:24:48.759Z,19.40
2022-08-12T06:27:19.058Z,19.50
2022-08-12T06:30:09.662Z,19.60
2022-08-12T06:32:34.459Z,19.80
2022-08-12T06:35:23.706Z,19.90
2022-08-12T06:37:56.915Z,20.00
2022-08-12T06:40:44.010Z,20.10
2022-08-12T06:43:11.177Z,20.20
2022-08-12T06:45:49.489Z,20.30
2022-08-12T06:48:17.711Z,20.40
2022-08-12T06:50:46.211Z,20.50
2022-08-12T06:53:13.527Z,20.60
2022-08-12T06:55:57.799Z,20.70
2022-08-12T06:58:25.812Z,20.80
2022-08-12T07:00:54.135Z,20.80
2022-08-12T07:03:29.985Z,20.90
2022-08-12T07:05:59.637Z,21.00
2022-08-12T07:08:31.618Z,21.20
2022-08-12T07:11:03.031Z,21.30
2022-08-12T07:14:02.386Z,21.30
2022-08-12T07:16:27.038Z,21.50
2022-08-12T07:18:55.834Z,21.60
2022-08-12T07:22:02.050Z,21.70
2022-08-12T07:24:12.473Z,21.80
2022-08-12T07:26:44.437Z,21.90
2022-08-12T07:29:12.410Z,21.90
2022-08-12T07:31:39.674Z,22.00
2022-08-12T07:34:06.855Z,22.10
2022-08-12T07:36:35.624Z,22.30
2022-08-12T07:39:03.015Z,22.30
2022-08-12T07:41:32.230Z,22.40
2022-08-12T07:44:04.801Z,22.50
2022-08-12T07:46:39.056Z,22.70
2022-08-12T07:49:11.295Z,22.80
2022-08-12T07:51:39.600Z,22.90
2022-08-12T07:54:10.553Z,22.90
2022-08-12T07:56:40.186Z,23.00
2022-08-12T07:59:09.144Z,23.10
2022-08-12T08:01:40.269Z,23.20
2022-08-12T08:04:26.450Z,23.30
2022-08-12T08:06:55.184Z,23.40
2022-08-12T08:09:24.471Z,23.50
2022-08-12T08:12:18.547Z,23.70
2022-08-12T08:14:47.233Z,23.70
2022-08-12T08:17:17.912Z,23.80
2022-08-12T08:20:03.206Z,23.90
2022-08-12T08:22:41.660Z,24.00
2022-08-12T08:25:20.414Z,24.00
2022-08-12T08:28:02.889Z,24.10
2022-08-12T08:30:32.271Z,24.20
2022-08-12T08:32:59.452Z,24.20
2022-08-12T08:35:28.145Z,24.20
2022-08-12T08:38:31.830Z,24.30
2022-08-12T08:42:15.532Z,24.20
2022-08-12T08:44:07.576Z,24.30
2022-08-12T08:46:38.191Z,24.40
2022-08-12T08:49:06.028Z,24.40
2022-08-12T08:51:33.435Z,24.60
2022-08-12T08:54:00.542Z,24.60
2022-08-12T08:56:29.995Z,24.60
2022-08-12T08:58:57.923Z,24.70
2022-08-12T09:01:26.304Z,24.70
2022-08-12T09:05:07.874Z,24.80
2022-08-12T09:06:53.824Z,24.70
2022-08-12T09:09:21.550Z,24.70
2022-08-12T09:14:54.702Z,24.80
2022-08-12T09:17:22.685Z,25.00
2022-08-12T09:19:57.252Z,25.10
2022-08-12T09:22:28.540Z,25.20
2022-08-12T09:24:59.826Z,25.30
2022-08-12T09:27:57.921Z,25.40
2022-08-12T09:30:18.134Z,25.40
2022-08-12T09:33:18.514Z,25.40
2022-08-12T09:35:47.016Z,25.50
2022-08-12T09:38:33.821Z,25.50
2022-08-12T09:42:33.315Z,25.50
2022-08-12T09:44:38.294Z,25.50
2022-08-12T09:46:56.218Z,25.60
2022-08-12T09:49:27.821Z,25.60
2022-08-12T09:51:55.654Z,25.60
2022-08-12T09:54:33.183Z,25.50
2022-08-12T09:58:07.522Z,25.60
2022-08-12T10:00:13.207Z,25.70
2022-08-12T10:03:06.223Z,25.70
2022-08-12T10:06:26.883Z,25.70
2022-08-12T10:08:30.679Z,25.70
2022-08-12T10:11:20.356Z,25.70
2022-08-12T10:13:48.972Z,25.70
2022-08-12T10:16:22.612Z,25.60
2022-08-12T10:18:54.523Z,25.60
2022-08-12T10:21:36.009Z,25.60
2022-08-12T10:24:08.902Z,25.60
2022-08-12T10:26:57.996Z,25.70
2022-08-12T10:30:37.983Z,25.80
2022-08-12T10:33:02.103Z,25.80
2022-08-12T10:35:20.137Z,25.90
2022-08-12T10:38:34.891Z,26.00
2022-08-12T10:40:37.773Z,26.00
2022-08-12T10:43:23.749Z,26.00
2022-08-12T10:45:57.251Z,26.00
2022-08-12T10:48:34.703Z,26.00
2022-08-12T10:51:52.036Z,26.10
2022-08-12T10:54:00.933Z,26.20
2022-08-12T10:56:34.679Z,26.20
2022-08-12T10:59:03.999Z,26.20
2022-08-12T11:04:18.042Z,26.20
2022-08-12T11:04:34.324Z,26.20
2022-08-12T11:08:34.580Z,26.30
2022-08-12T11:10:01.504Z,26.30
2022-08-12T11:12:56.258Z,26.40
2022-08-12T11:15:33.539Z,26.60
2022-08-12T11:18:18.332Z,26.60
2022-08-12T11:20:48.391Z,26.70
2022-08-12T11:23:35.734Z,26.80
2022-08-12T11:26:06.259Z,26.90
2022-08-12T11:28:37.015Z,26.80
2022-08-12T11:31:06.227Z,26.80
2022-08-12T11:34:04.320Z,26.80
2022-08-12T11:36:22.119Z,26.80
2022-08-12T11:38:50.836Z,26.80
2022-08-12T11:41:31.583Z,26.80
2022-08-12T11:44:36.846Z,26.80
2022-08-12T11:46:54.755Z,26.70
2022-08-12T11:49:31.047Z,26.70
2022-08-12T11:52:01.636Z,26.70
2022-08-12T11:54:29.551Z,26.70
2022-08-12T11:57:02.482Z,26.80
2022-08-12T12:02:20.573Z,26.90
2022-08-12T12:04:52.496Z,26.90
2022-08-12T12:08:36.495Z,26.90
2022-08-12T12:10:15.361Z,26.90
2022-08-12T12:12:49.742Z,27.00
2022-08-12T12:15:24.971Z,27.00
2022-08-12T12:18:04.728Z,27.00
2022-08-12T12:20:31.943Z,27.00
2022-08-12T12:22:58.997Z,27.10
2022-08-12T12:26:06.647Z,27.10
2022-08-12T12:28:36.538Z,27.10
2022-08-12T12:31:01.791Z,27.20
2022-08-12T12:33:57.180Z,27.20
2022-08-12T12:36:23.129Z,27.30
2022-08-12T12:38:53.669Z,27.40
2022-08-12T12:41:20.728Z,27.40
2022-08-12T12:43:56.521Z,27.40
2022-08-12T12:46:31.095Z,27.40
2022-08-12T12:48:58.568Z,27.40
2022-08-12T12:52:06.739Z,27.50
2022-08-12T12:54:13.344Z,27.60
2022-08-12T12:56:44.522Z,27.60
2022-08-12T12:59:54.996Z,27.50
2022-08-12T13:02:07.823Z,27.50
2022-08-12T13:04:37.329Z,27.40
2022-08-12T13:07:06.436Z,27.40
2022-08-12T13:09:36.490Z,27.40
2022-08-12T13:12:11.333Z,27.40
2022-08-12T13:14:39.807Z,27.40
2022-08-12T13:17:09.776Z,27.50
2022-08-12T13:19:45.237Z,27.50
2022-08-12T13:22:23.592Z,27.50
2022-08-12T13:24:55.833Z,27.50
2022-08-12T13:27:36.540Z,27.60
2022-08-12T13:30:06.823Z,27.80
2022-08-12T13:32:37.816Z,27.80
2022-08-12T13:35:19.898Z,27.80
2022-08-12T13:37:56.172Z,27.60
2022-08-12T13:40:32.017Z,27.50
2022-08-12T13:43:02.138Z,27.50
2022-08-12T13:45:33.316Z,27.40
2022-08-12T13:48:03.431Z,27.40
2022-08-12T13:50:43.690Z,27.40
2022-08-12T13:53:24.322Z,27.40
2022-08-12T13:55:59.505Z,27.40
2022-08-12T13:58:30.181Z,27.40
2022-08-12T14:00:58.729Z,27.40
2022-08-12T14:03:28.493Z,27.50
2022-08-12T14:06:15.396Z,27.40
2022-08-12T14:08:43.894Z,27.50
2022-08-12T14:11:12.417Z,27.50
2022-08-12T14:14:04.259Z,27.60
2022-08-12T14:16:46.986Z,27.70
2022-08-12T14:19:25.612Z,27.90
2022-08-12T14:22:00.489Z,27.80
2022-08-12T14:24:35.768Z,27.70
2022-08-12T14:27:08.957Z,27.60
2022-08-12T14:30:05.591Z,27.50
2022-08-12T14:32:27.060Z,27.40
2022-08-12T14:34:56.520Z,27.40
2022-08-12T14:37:57.113Z,27.40
2022-08-12T14:40:18.395Z,27.30
2022-08-12T14:42:46.870Z,27.40
2022-08-12T14:45:14.569Z,27.40
2022-08-12T14:47:58.608Z,27.40
2022-08-12T14:50:58.761Z,27.40
2022-08-12T14:55:19.560Z,27.40
2022-08-12T14:59:20.386Z,27.40
2022-08-12T15:01:52.168Z,27.50
2022-08-12T15:04:29.207Z,27.40
2022-08-12T15:06:56.753Z,27.40
2022-08-12T15:09:29.363Z,27.40
2022-08-12T15:12:03.416Z,27.30
2022-08-12T15:14:31.936Z,27.30
2022-08-12T15:16:59.948Z,27.40
2022-08-12T15:20:31.985Z,27.50
2022-08-12T15:22:37.556Z,27.60
2022-08-12T15:25:07.630Z,27.40
2022-08-12T15:28:04.709Z,27.40
2022-08-12T15:30:32.712Z,27.50
2022-08-12T15:33:12.189Z,27.60
2022-08-12T15:35:52.173Z,27.80
2022-08-12T15:38:27.733Z,28.00
2022-08-12T15:57:07.647Z,28.10
2022-08-12T16:00:00.609Z,27.90
2022-08-12T16:02:26.663Z,27.80
2022-08-12T16:04:55.067Z,27.80
2022-08-12T16:07:30.227Z,27.80
2022-08-12T16:10:04.972Z,27.60
2022-08-12T16:12:43.705Z,27.50
2022-08-12T16:15:25.088Z,27.40
2022-08-12T16:18:17.749Z,27.40
2022-08-12T16:20:46.777Z,27.40
2022-08-12T16:23:36.423Z,27.70
2022-08-12T16:26:14.798Z,27.80
2022-08-12T16:28:47.531Z,27.80
2022-08-12T16:31:22.638Z,27.80
2022-08-12T16:33:59.467Z,27.70
2022-08-12T16:36:29.140Z,27.60
2022-08-12T16:38:56.511Z,27.50
2022-08-12T16:41:23.809Z,27.50
2022-08-12T16:43:53.125Z,27.60
2022-08-12T16:46:32.216Z,27.70
2022-08-12T16:49:04.266Z,27.90
2022-08-12T16:51:40.824Z,28.10
2022-08-12T16:54:16.226Z,28.30
2022-08-12T16:56:54.820Z,28.30
2022-08-12T16:59:53.131Z,28.40
2022-08-12T17:02:31.927Z,28.50
2022-08-12T17:05:04.800Z,28.40
2022-08-12T17:07:36.884Z,28.50
2022-08-12T18:38:21.863Z,35.60
2022-08-12T18:41:10.438Z,35.40
2022-08-12T18:44:00.246Z,34.90
2022-08-12T18:46:46.666Z,34.10
2022-08-12T18:49:29.770Z,32.90
2022-08-12T18:52:04.299Z,31.70
2022-08-12T18:54:35.520Z,30.70
2022-08-12T18:57:16.654Z,29.90
2022-08-12T19:00:06.419Z,29.30
2022-08-12T19:02:39.675Z,28.60
2022-08-12T19:05:11.067Z,28.00
2022-08-12T19:07:49.944Z,27.40
2022-08-12T19:10:26.228Z,26.90
2022-08-12T19:13:18.509Z,26.50
2022-08-12T19:15:48.806Z,26.20
2022-08-12T19:18:17.363Z,25.70
2022-08-12T19:20:50.962Z,25.40
2022-08-12T19:23:20.866Z,25.10
2022-08-12T19:25:59.615Z,24.80
2022-08-12T19:28:38.527Z,24.50
2022-08-12T19:31:45.291Z,24.20
2022-08-12T19:37:38.430Z,23.70
2022-08-12T19:40:31.030Z,23.40
2022-08-12T19:43:13.356Z,23.20
2022-08-12T19:45:53.662Z,22.90
2022-08-12T19:48:23.809Z,22.70
2022-08-12T19:50:56.862Z,22.50
2022-08-12T19:53:27.460Z,22.30
2022-08-12T19:55:57.205Z,22.20
2022-08-12T19:58:26.808Z,22.00
2022-08-12T20:00:55.612Z,21.80
2022-08-12T20:03:40.026Z,21.70
2022-08-12T20:06:15.575Z,21.50
2022-08-12T20:08:48.806Z,21.30
2022-08-12T20:12:12.662Z,21.20
2022-08-12T20:14:11.764Z,21.00
2022-08-12T20:16:57.531Z,20.90
2022-08-12T20:20:01.352Z,20.70
2022-08-12T20:22:24.181Z,20.60
2022-08-12T20:25:01.561Z,20.40
2022-08-12T20:28:05.235Z,20.30
2022-08-12T20:30:52.360Z,20.20
2022-08-12T20:33:18.719Z,20.00
2022-08-12T20:36:06.818Z,19.90
2022-08-12T20:38:40.111Z,19.80
2022-08-12T20:41:17.727Z,19.70
2022-08-12T20:43:52.091Z,19.60
2022-08-12T20:46:20.132Z,19.40
2022-08-12T20:48:55.311Z,19.40
2022-08-12T20:51:27.600Z,19.30
2022-08-12T20:53:59.243Z,19.20
2022-08-12T20:56:30.809Z,19.10
2022-08-12T20:59:01.273Z,19.00
2022-08-12T21:01:47.064Z,18.90
2022-08-12T21:04:36.693Z,18.80
2022-08-12T21:07:09.697Z,18.70
2022-08-12T21:09:48.108Z,18.60
2022-08-12T21:12:27.306Z,18.50
2022-08-12T21:15:23.807Z,18.50
2022-08-12T21:18:09.806Z,18.40
2022-08-12T21:20:52.894Z,18.30
2022-08-12T21:23:22.604Z,18.20
2022-08-12T21:25:51.876Z,18.20
2022-08-12T21:28:20.975Z,18.10
2022-08-12T21:32:34.847Z,18.00
2022-08-12T21:34:07.959Z,18.00
2022-08-12T21:36:32.315Z,17.90
2022-08-12T21:39:20.908Z,17.80
2022-08-12T21:41:56.187Z,17.70
2022-08-12T21:45:45.685Z,17.70
2022-08-12T21:47:20.902Z,16.30
2022-08-12T21:50:03.306Z,17.50
2022-08-12T21:52:42.113Z,17.50
2022-08-12T21:55:18.310Z,17.40
2022-08-12T21:57:53.196Z,17.30
2022-08-12T22:00:31.733Z,17.30
2022-08-12T22:03:25.159Z,17.30
2022-08-12T22:06:31.553Z,17.20
2022-08-12T22:09:16.175Z,17.10
2022-08-12T22:11:49.177Z,17.00
2022-08-12T22:14:24.345Z,17.00
2022-08-12T22:16:54.016Z,16.90
2022-08-12T22:19:23.031Z,16.90
2022-08-12T22:21:53.896Z,16.90
2022-08-12T22:24:26.792Z,16.80
2022-08-12T22:27:08.056Z,16.80
2022-08-12T22:30:16.805Z,16.70
2022-08-12T22:32:55.014Z,16.70
2022-08-12T22:35:56.212Z,16.60
2022-08-12T22:38:25.054Z,16.60
2022-08-12T22:40:55.901Z,16.50
2022-08-12T22:44:00.686Z,16.50
2022-08-12T22:46:52.838Z,16.50
2022-08-12T22:49:36.541Z,16.40
2022-08-12T22:52:14.315Z,16.40
2022-08-12T22:55:02.212Z,16.40
2022-08-12T22:57:53.896Z,16.30
2022-08-12T23:00:24.324Z,16.30
2022-08-12T23:03:03.437Z,16.20
2022-08-12T23:05:37.036Z,16.20
2022-08-12T23:08:30.093Z,16.20
2022-08-12T23:11:06.078Z,16.10
2022-08-12T23:13:54.856Z,16.00
2022-08-12T23:16:31.023Z,15.90
2022-08-12T23:19:09.846Z,15.90
2022-08-12T23:22:05.036Z,15.90
2022-08-12T23:24:37.133Z,15.90
2022-08-12T23:27:24.932Z,15.80
2022-08-12T23:30:19.299Z,15.70
2022-08-12T23:32:54.490Z,15.70
2022-08-12T23:35:45.827Z,15.60
2022-08-12T23:38:30.162Z,15.60
2022-08-12T23:41:03.959Z,15.60
2022-08-12T23:43:40.809Z,15.60
2022-08-12T23:46:19.310Z,15.60
2022-08-12T23:48:51.667Z,15.50
2022-08-12T23:51:26.869Z,15.50
2022-08-12T23:54:04.115Z,15.50
2022-08-12T23:56:34.964Z,15.40
2022-08-12T23:59:07.003Z,15.40
